Time;durP1;ratioP1;P1;durP2;ratioP2;P2;SDS_P1;SDS_P2;PMS_P1;PMS_P2;Temp;Humidity;BMP_temperature;BMP_pressure;BME280_temperature;BME280_humidity;BME280_pressure;Samples;Min_cycle;Max_cycle;Signal;HPM_P1;HPM_P2
2021/07/23 00:01:56;;;;;;;20.45;14.02;;;;;;;17.06;66.38;100951.78;4900758;28;114109;-77
2021/07/23 00:04:22;;;;;;;19.08;13.85;;;;;;;17.05;66.70;100960.22;4884031;28;124935;-77
2021/07/23 00:06:49;;;;;;;20.70;14.48;;;;;;;17.04;66.57;100961.34;4899581;28;125504;-75
2021/07/23 00:09:15;;;;;;;18.23;13.77;;;;;;;17.02;66.92;100958.94;4885829;28;98728;-76
2021/07/23 00:11:41;;;;;;;20.35;13.98;;;;;;;16.98;66.70;100960.63;4903226;28;97760;-76
2021/07/23 00:14:07;;;;;;;21.42;14.40;;;;;;;16.93;66.85;100961.50;4883927;28;127364;-76
2021/07/23 00:16:33;;;;;;;19.88;14.50;;;;;;;16.89;67.06;100959.69;4883889;28;128177;-70
2021/07/23 00:18:59;;;;;;;16.33;13.68;;;;;;;16.86;66.81;100958.38;4884644;28;110533;-70
2021/07/23 00:21:25;;;;;;;17.58;13.68;;;;;;;16.83;67.08;100964.41;4902517;28;114827;-76
2021/07/23 00:23:51;;;;;;;18.50;14.45;;;;;;;16.83;67.21;100947.28;4868491;28;98432;-75
2021/07/23 00:26:19;;;;;;;19.42;14.00;;;;;;;16.80;67.03;100953.31;4883873;28;128065;-76
2021/07/23 00:28:45;;;;;;;19.58;14.43;;;;;;;16.78;67.23;100958.22;4900284;28;100478;-76
2021/07/23 00:31:12;;;;;;;18.42;13.55;;;;;;;16.73;66.99;100955.56;4918084;28;98218;-76
2021/07/23 00:33:38;;;;;;;20.02;15.05;;;;;;;16.69;66.91;100956.16;4902790;28;98499;-70
2021/07/23 00:36:04;;;;;;;22.60;13.70;;;;;;;16.65;66.96;100943.44;4884053;28;126657;-76
2021/07/23 00:38:30;;;;;;;24.23;14.35;;;;;;;16.64;66.96;100945.34;4916601;28;110950;-70
2021/07/23 00:40:56;;;;;;;17.67;13.90;;;;;;;16.60;67.16;100944.31;4902490;28;116994;-70
2021/07/23 00:43:22;;;;;;;22.17;14.35;;;;;;;16.57;67.15;100944.91;4900865;28;98430;-76
2021/07/23 00:45:49;;;;;;;21.98;14.27;;;;;;;16.53;67.25;100949.31;4899387;28;128100;-77
2021/07/23 00:48:15;;;;;;;20.00;13.85;;;;;;;16.48;67.37;100951.31;4916936;28;118053;-77
2021/07/23 00:50:41;;;;;;;19.92;14.20;;;;;;;16.44;67.35;100957.34;4917660;28;117577;-77
2021/07/23 00:53:07;;;;;;;19.92;13.32;;;;;;;16.38;67.46;100946.84;4899887;28;128123;-77
2021/07/23 00:55:33;;;;;;;18.48;13.65;;;;;;;16.36;67.48;100949.84;4898548;28;127860;-71
2021/07/23 00:57:59;;;;;;;18.42;13.13;;;;;;;16.33;67.83;100950.44;4915283;28;128448;-70
2021/07/23 01:00:25;;;;;;;18.75;14.02;;;;;;;16.32;67.60;100951.56;4918374;28;98000;-71
2021/07/23 01:02:52;;;;;;;20.50;14.35;;;;;;;16.31;67.61;100947.22;4879401;28;126709;-71
2021/07/23 01:05:18;;;;;;;20.38;14.20;;;;;;;16.29;67.75;100949.41;4880633;28;98369;-71
2021/07/23 01:07:46;;;;;;;17.55;13.48;;;;;;;16.24;67.66;100948.69;4877818;28;111785;-71
2021/07/23 01:10:12;;;;;;;18.63;14.30;;;;;;;16.21;67.71;100950.06;4884599;28;97841;-78
2021/07/23 01:12:38;;;;;;;19.77;13.35;;;;;;;16.18;67.71;100948.75;4880376;28;128148;-76
2021/07/23 01:15:05;;;;;;;19.13;13.68;;;;;;;16.16;67.12;100942.00;4881362;28;98629;-71
2021/07/23 01:17:31;;;;;;;21.98;14.43;;;;;;;16.12;67.72;100949.13;4897362;28;98409;-71
2021/07/23 01:20:19;;;;;;;19.70;13.77;;;;;;;16.07;67.46;100944.56;4925263;28;115804;-77
2021/07/23 01:22:45;;;;;;;19.08;14.05;;;;;;;16.06;67.64;100939.41;4915594;28;98152;-71
2021/07/23 01:25:12;;;;;;;18.10;14.18;;;;;;;16.05;67.59;100948.66;4886777;28;103588;-78
2021/07/23 01:27:43;;;;;;;17.77;13.55;;;;;;;16.04;67.79;100941.63;4896713;28;98324;-78
2021/07/23 01:30:10;;;;;;;18.17;13.40;;;;;;;16.01;67.46;100934.84;4912938;28;98290;-71
2021/07/23 01:32:36;;;;;;;17.30;13.85;;;;;;;15.99;67.84;100941.66;4896783;28;107397;-71
2021/07/23 01:35:04;;;;;;;17.70;13.55;;;;;;;15.97;68.23;100939.25;4895687;28;126878;-77
2021/07/23 01:37:30;;;;;;;16.48;13.15;;;;;;;15.91;67.60;100938.47;4880960;28;97894;-71
2021/07/23 01:39:56;;;;;;;16.17;13.25;;;;;;;15.89;67.88;100929.81;4908361;28;102155;-71
2021/07/23 01:42:22;;;;;;;15.38;13.13;;;;;;;15.89;67.90;100942.63;4899759;28;101255;-77
2021/07/23 01:44:48;;;;;;;15.90;12.70;;;;;;;15.88;68.33;100938.28;4901478;28;104225;-77
2021/07/23 01:47:14;;;;;;;18.52;13.02;;;;;;;15.87;68.27;100942.09;4891962;28;126044;-76
2021/07/23 01:49:40;;;;;;;18.38;13.25;;;;;;;15.86;67.73;100933.13;4886962;28;115307;-71
2021/07/23 01:52:07;;;;;;;17.95;13.88;;;;;;;15.84;67.90;100929.09;4897085;28;98154;-71
2021/07/23 01:54:33;;;;;;;16.50;13.05;;;;;;;15.83;67.97;100927.47;4882043;28;98547;-71
2021/07/23 01:56:59;;;;;;;19.25;13.98;;;;;;;15.81;67.71;100927.75;4931376;28;124785;-77
2021/07/23 01:59:25;;;;;;;19.13;13.55;;;;;;;15.77;67.84;100928.63;4900690;28;107755;-71
2021/07/23 02:01:51;;;;;;;19.17;13.35;;;;;;;15.74;67.83;100930.03;4887666;28;128126;-77
2021/07/23 02:04:17;;;;;;;17.42;13.65;;;;;;;15.74;67.85;100923.78;4899046;28;127927;-71
2021/07/23 02:06:43;;;;;;;17.58;13.30;;;;;;;15.72;68.25;100924.09;4895533;28;126957;-77
2021/07/23 02:09:09;;;;;;;16.23;13.30;;;;;;;15.72;68.38;100924.09;4884847;28;118030;-77
2021/07/23 02:11:35;;;;;;;17.95;13.07;;;;;;;15.69;68.41;100922.75;4898977;28;128158;-77
2021/07/23 02:14:06;;;;;;;16.40;13.50;;;;;;;15.66;68.00;100923.31;4928755;28;98046;-71
2021/07/23 02:16:33;;;;;;;16.90;13.25;;;;;;;15.63;68.01;100923.84;4896594;28;98029;-77
2021/07/23 02:18:59;;;;;;;16.52;13.00;;;;;;;15.59;68.66;100919.28;4903015;28;108912;-77
2021/07/23 02:21:25;;;;;;;19.60;13.57;;;;;;;15.57;68.79;100916.88;4903712;28;124771;-77
2021/07/23 02:23:51;;;;;;;17.00;12.93;;;;;;;15.56;68.37;100914.44;4897926;28;126093;-77
2021/07/23 02:26:21;;;;;;;16.67;12.95;;;;;;;15.51;68.17;100915.31;4914474;28;125577;-71
2021/07/23 02:28:48;;;;;;;18.08;13.25;;;;;;;15.51;68.78;100917.22;4899317;28;97984;-71
2021/07/23 02:31:16;;;;;;;15.75;12.40;;;;;;;15.49;68.53;100919.44;4884915;28;98328;-71
2021/07/23 02:33:42;;;;;;;15.88;12.82;;;;;;;15.49;68.44;100914.00;4906428;28;98520;-77
2021/07/23 02:36:08;;;;;;;16.88;12.73;;;;;;;15.52;68.71;100922.34;4935170;28;97897;-76
2021/07/23 02:38:35;;;;;;;15.65;12.88;;;;;;;15.51;68.73;100917.22;4934886;28;108843;-76
2021/07/23 02:41:01;;;;;;;16.83;13.05;;;;;;;15.46;68.53;100921.63;4918344;28;98918;-76
2021/07/23 02:43:27;;;;;;;14.98;12.10;;;;;;;15.42;69.05;100915.13;4902236;28;98771;-71
2021/07/23 02:45:53;;;;;;;17.05;12.75;;;;;;;15.36;69.03;100908.13;4884772;28;98717;-71
2021/07/23 02:48:19;;;;;;;15.80;12.30;;;;;;;15.33;69.45;100908.72;4899842;28;97845;-71
2021/07/23 02:50:45;;;;;;;13.95;11.68;;;;;;;15.32;69.37;100912.53;4883632;28;127493;-77
2021/07/23 02:53:11;;;;;;;15.23;12.07;;;;;;;15.30;69.33;100906.59;4895257;28;99228;-76
2021/07/23 02:55:37;;;;;;;17.15;12.40;;;;;;;15.25;69.22;100909.38;4916915;28;124826;-76
2021/07/23 02:58:04;;;;;;;15.63;12.05;;;;;;;15.19;69.35;100900.44;4903905;28;118602;-71
2021/07/23 03:00:30;;;;;;;17.20;12.52;;;;;;;15.16;69.50;100895.59;4886679;28;98645;-72
2021/07/23 03:02:56;;;;;;;16.17;12.43;;;;;;;15.15;69.66;100904.84;4913761;28;114133;-71
2021/07/23 03:05:22;;;;;;;15.65;12.70;;;;;;;15.11;69.91;100895.66;4884828;28;97716;-77
2021/07/23 03:07:54;;;;;;;15.63;12.20;;;;;;;15.06;69.67;100894.91;4882408;28;117800;-71
2021/07/23 03:10:20;;;;;;;15.25;11.98;;;;;;;15.07;69.97;100886.47;4898928;28;128668;-71
2021/07/23 03:12:47;;;;;;;15.95;12.43;;;;;;;15.15;70.32;100895.88;4882005;28;125997;-71
2021/07/23 03:15:13;;;;;;;17.67;13.00;;;;;;;15.20;70.14;100893.91;4884685;28;126111;-71
2021/07/23 03:17:39;;;;;;;16.20;12.63;;;;;;;15.28;70.06;100886.25;4885435;28;98095;-71
2021/07/23 03:20:06;;;;;;;15.35;12.95;;;;;;;15.34;69.84;100885.91;4895091;28;127746;-71
2021/07/23 03:22:32;;;;;;;16.02;12.90;;;;;;;15.35;69.80;100878.56;4883325;28;109459;-71
2021/07/23 03:25:00;;;;;;;17.85;13.60;;;;;;;15.35;69.64;100886.69;4897763;28;111287;-71
2021/07/23 03:27:27;;;;;;;16.55;13.20;;;;;;;15.34;69.63;100880.47;4885282;28;98203;-71
2021/07/23 03:29:53;;;;;;;17.05;13.80;;;;;;;15.34;70.15;100883.19;4894408;28;115592;-75
2021/07/23 03:32:19;;;;;;;17.60;14.85;;;;;;;15.35;70.26;100886.69;4901388;28;104290;-71
2021/07/23 03:34:45;;;;;;;17.83;13.85;;;;;;;15.39;70.25;100888.56;4899625;28;124119;-76
2021/07/23 03:37:11;;;;;;;18.40;13.30;;;;;;;15.44;70.21;100876.81;4903692;28;97844;-76
2021/07/23 03:39:37;;;;;;;17.85;13.68;;;;;;;15.51;70.09;100873.75;4902832;28;126822;-75
2021/07/23 03:42:03;;;;;;;17.90;13.27;;;;;;;15.55;70.30;100883.75;4900331;28;125358;-75
2021/07/23 03:44:29;;;;;;;19.45;13.52;;;;;;;15.53;69.69;100875.09;4901657;28;119921;-71
2021/07/23 03:46:55;;;;;;;15.13;12.50;;;;;;;15.53;70.35;100877.81;4895713;28;118266;-71
2021/07/23 03:49:21;;;;;;;14.90;12.55;;;;;;;15.56;70.32;100873.69;4905220;28;125064;-71
2021/07/23 03:51:47;;;;;;;14.68;12.52;;;;;;;15.56;70.14;100874.50;4916566;28;127786;-71
2021/07/23 03:54:13;;;;;;;15.85;13.20;;;;;;;15.57;70.27;100875.31;4899384;28;125953;-71
2021/07/23 03:56:39;;;;;;;16.77;13.10;;;;;;;15.60;69.85;100875.56;4933076;28;116311;-71
2021/07/23 03:59:06;;;;;;;17.70;13.18;;;;;;;15.63;70.04;100871.44;4899824;28;125175;-75
2021/07/23 04:01:32;;;;;;;17.40;13.50;;;;;;;15.66;70.00;100879.84;4899443;28;100762;-71
2021/07/23 04:03:58;;;;;;;15.27;12.00;;;;;;;15.74;69.86;100875.66;4901529;28;98118;-71
2021/07/23 04:06:26;;;;;;;18.25;12.75;;;;;;;15.79;70.22;100875.59;4902916;28;115287;-75
2021/07/23 04:08:54;;;;;;;17.83;13.30;;;;;;;15.86;70.35;100877.97;4899658;28;100453;-76
2021/07/23 04:11:33;;;;;;;19.58;13.00;;;;;;;15.91;70.20;100867.81;4903646;28;98000;-76
2021/07/23 04:13:59;;;;;;;18.15;13.05;;;;;;;15.97;69.93;100865.03;4930496;28;98236;-70
2021/07/23 04:16:26;;;;;;;16.23;12.63;;;;;;;16.02;69.78;100862.25;4900753;28;106453;-75
2021/07/23 04:18:52;;;;;;;18.90;13.35;;;;;;;16.08;69.68;100867.31;4884827;28;98349;-76
2021/07/23 04:21:18;;;;;;;17.90;12.82;;;;;;;16.15;70.20;100872.38;4914328;28;107506;-70
2021/07/23 04:23:44;;;;;;;20.40;13.57;;;;;;;16.20;69.46;100877.75;4882999;28;127751;-75
2021/07/23 04:26:10;;;;;;;18.08;13.43;;;;;;;16.25;69.80;100880.38;4913922;28;117725;-70
2021/07/23 04:28:36;;;;;;;16.02;13.20;;;;;;;16.32;69.64;100882.75;4899302;28;98168;-70
2021/07/23 04:31:02;;;;;;;16.17;12.77;;;;;;;16.38;69.90;100882.34;4899149;28;127527;-70
2021/07/23 04:33:28;;;;;;;16.88;13.02;;;;;;;16.44;69.40;100877.66;4902443;28;126509;-70
2021/07/23 04:35:54;;;;;;;15.98;12.43;;;;;;;16.50;69.70;100881.88;4903644;28;98087;-70
2021/07/23 04:38:20;;;;;;;17.60;13.02;;;;;;;16.55;69.81;100886.47;4911339;28;126097;-74
2021/07/23 04:40:46;;;;;;;16.17;12.80;;;;;;;16.61;69.66;100880.63;4895900;28;128153;-70
2021/07/23 04:43:12;;;;;;;15.68;12.80;;;;;;;16.67;69.66;100879.44;4880170;28;126630;-75
2021/07/23 04:45:40;;;;;;;15.00;12.82;;;;;;;16.73;69.23;100885.63;4881566;28;117459;-75
2021/07/23 04:48:06;;;;;;;18.65;13.95;;;;;;;16.77;69.41;100880.41;4897908;28;98296;-70
2021/07/23 04:50:32;;;;;;;16.05;13.07;;;;;;;16.81;69.16;100882.22;4881715;28;97961;-71
2021/07/23 04:52:58;;;;;;;16.83;13.23;;;;;;;16.84;68.81;100887.06;4896869;28;127316;-75
2021/07/23 04:55:24;;;;;;;16.48;12.88;;;;;;;16.85;68.82;100885.97;4881284;28;110147;-72
2021/07/23 04:57:50;;;;;;;16.92;13.48;;;;;;;16.87;68.84;100886.47;4884548;28;99019;-70
2021/07/23 05:00:17;;;;;;;16.65;13.38;;;;;;;16.90;68.96;100882.38;4884278;28;98427;-74
2021/07/23 05:02:43;;;;;;;18.50;13.52;;;;;;;16.96;69.05;100881.16;4897738;28;98249;-74
2021/07/23 05:05:13;;;;;;;18.27;13.48;;;;;;;16.99;68.78;100879.75;4910747;28;104366;-70
2021/07/23 05:07:40;;;;;;;17.20;13.65;;;;;;;17.03;68.90;100875.31;4895207;28;98444;-75
2021/07/23 05:10:07;;;;;;;16.45;13.32;;;;;;;17.08;69.26;100883.38;4896819;28;119295;-75
2021/07/23 05:12:33;;;;;;;16.08;13.02;;;;;;;17.17;68.90;100882.41;4883077;28;99178;-75
2021/07/23 05:14:59;;;;;;;19.25;14.15;;;;;;;17.34;68.90;100884.53;4864484;28;117845;-70
2021/07/23 05:17:25;;;;;;;17.13;13.60;;;;;;;17.51;68.64;100883.09;4902085;28;127934;-75
2021/07/23 05:19:51;;;;;;;16.00;13.25;;;;;;;17.68;68.44;100883.28;4932781;28;128633;-70
2021/07/23 05:22:17;;;;;;;20.20;13.73;;;;;;;17.86;67.95;100887.03;4898970;28;127309;-75
2021/07/23 05:24:43;;;;;;;15.90;12.90;;;;;;;18.03;67.92;100881.72;4894357;28;115844;-74
2021/07/23 05:27:09;;;;;;;17.63;13.77;;;;;;;18.20;67.50;100874.84;4886759;28;128138;-76
2021/07/23 05:29:35;;;;;;;19.85;14.63;;;;;;;18.37;66.84;100880.41;4899035;28;127510;-75
2021/07/23 05:32:01;;;;;;;15.35;13.60;;;;;;;18.53;66.69;100878.94;4931032;28;127722;-70
2021/07/23 05:34:27;;;;;;;15.70;13.52;;;;;;;18.68;66.35;100885.13;4902478;28;104805;-71
2021/07/23 05:36:56;;;;;;;15.50;13.52;;;;;;;18.84;66.08;100883.66;4931502;28;128030;-71
2021/07/23 05:39:22;;;;;;;18.35;14.13;;;;;;;19.04;65.53;100882.31;4915924;28;106618;-75
2021/07/23 05:41:48;;;;;;;17.23;14.55;;;;;;;19.20;65.38;100879.97;4931177;28;127451;-70
2021/07/23 05:44:14;;;;;;;17.38;14.70;;;;;;;19.35;64.71;100882.28;4886489;28;117858;-71
2021/07/23 05:46:40;;;;;;;18.02;14.50;;;;;;;19.46;64.43;100877.34;4887059;28;99137;-72
2021/07/23 05:49:07;;;;;;;18.48;15.18;;;;;;;19.62;63.70;100878.53;4912381;28;126859;-70
2021/07/23 05:51:33;;;;;;;18.42;15.13;;;;;;;19.75;63.38;100874.06;4882489;28;125599;-74
2021/07/23 05:53:59;;;;;;;17.42;14.63;;;;;;;19.89;62.98;100873.94;4930409;28;97661;-70
2021/07/23 05:56:25;;;;;;;17.70;15.25;;;;;;;20.02;62.49;100873.75;4902720;28;126767;-71
2021/07/23 05:58:51;;;;;;;16.67;14.93;;;;;;;20.17;62.28;100869.75;4903867;28;127101;-71
2021/07/23 06:01:17;;;;;;;18.10;14.65;;;;;;;20.34;61.72;100871.66;4903191;28;98232;-71
2021/07/23 06:03:43;;;;;;;19.17;15.43;;;;;;;20.48;61.61;100875.06;4902037;28;117643;-71
2021/07/23 06:06:09;;;;;;;18.95;15.65;;;;;;;20.62;61.08;100883.09;4915801;28;98342;-70
2021/07/23 06:08:35;;;;;;;17.08;14.90;;;;;;;20.74;61.11;100882.44;4898189;28;127486;-75
2021/07/23 06:11:07;;;;;;;18.27;14.80;;;;;;;20.84;60.84;100887.56;4899331;28;126708;-75
2021/07/23 06:13:37;;;;;;;16.75;14.77;;;;;;;20.98;60.53;100874.47;4916091;28;97905;-70
2021/07/23 06:16:08;;;;;;;18.48;15.25;;;;;;;21.19;59.74;100877.31;4903583;28;125922;-74
2021/07/23 06:18:34;;;;;;;18.10;16.08;;;;;;;21.36;59.12;100884.66;4903625;28;98529;-71
2021/07/23 06:21:00;;;;;;;19.13;14.70;;;;;;;21.51;58.77;100883.31;4932483;28;128286;-76
2021/07/23 06:23:26;;;;;;;16.48;14.45;;;;;;;21.72;58.46;100883.34;4905747;28;97828;-76
2021/07/23 06:25:52;;;;;;;16.13;14.23;;;;;;;22.42;56.84;100878.97;4917505;28;126345;-75
2021/07/23 06:28:18;;;;;;;18.27;14.63;;;;;;;22.89;55.73;100877.84;4903205;28;98374;-76
2021/07/23 06:30:45;;;;;;;19.48;14.82;;;;;;;22.99;55.42;100881.00;4883789;28;97933;-76
2021/07/23 06:33:11;;;;;;;19.33;14.55;;;;;;;23.19;55.08;100881.25;4916537;28;97957;-71
2021/07/23 06:35:37;;;;;;;17.95;14.50;;;;;;;23.23;54.48;100884.91;4881841;28;117002;-75
2021/07/23 06:38:04;;;;;;;19.50;14.68;;;;;;;23.26;54.56;100882.28;4917399;28;99075;-73
2021/07/23 06:40:30;;;;;;;17.25;14.85;;;;;;;23.25;54.89;100888.09;4900638;28;97935;-72
2021/07/23 06:42:56;;;;;;;18.92;14.68;;;;;;;23.29;54.26;100886.28;4902855;28;116660;-71
2021/07/23 06:45:22;;;;;;;18.17;14.95;;;;;;;23.37;53.95;100876.31;4902260;28;98153;-71
2021/07/23 06:47:48;;;;;;;17.70;14.23;;;;;;;23.66;53.58;100872.56;4934075;28;126854;-71
2021/07/23 06:50:14;;;;;;;17.98;14.25;;;;;;;23.75;53.15;100876.78;4898362;28;98152;-70
2021/07/23 06:52:40;;;;;;;19.00;14.50;;;;;;;23.92;52.93;100878.44;4917931;28;97819;-75
2021/07/23 06:55:07;;;;;;;18.38;14.80;;;;;;;24.08;52.54;100873.03;4887199;28;108716;-71
2021/07/23 06:57:34;;;;;;;16.92;14.15;;;;;;;24.17;52.29;100873.69;4934577;28;98063;-70
2021/07/23 07:00:00;;;;;;;16.85;14.27;;;;;;;24.32;52.30;100876.84;4901639;28;98309;-75
2021/07/23 07:02:26;;;;;;;17.15;15.15;;;;;;;24.66;51.10;100878.22;4884003;28;116829;-76
2021/07/23 07:04:52;;;;;;;19.38;14.98;;;;;;;24.83;50.88;100877.06;4903495;28;99046;-76
2021/07/23 07:07:18;;;;;;;18.05;14.93;;;;;;;24.87;50.29;100873.25;4934382;28;122211;-70
2021/07/23 07:09:44;;;;;;;17.40;14.35;;;;;;;24.95;50.25;100877.00;4902811;28;127404;-75
2021/07/23 07:12:10;;;;;;;16.23;14.52;;;;;;;24.97;50.04;100871.94;4917462;28;118619;-70
2021/07/23 07:14:37;;;;;;;15.95;14.20;;;;;;;24.94;49.67;100867.13;4900708;28;127985;-75
2021/07/23 07:17:04;;;;;;;15.70;13.77;;;;;;;25.01;49.48;100872.81;4904022;28;98361;-70
2021/07/23 07:19:30;;;;;;;15.43;13.85;;;;;;;25.12;48.98;100876.69;4915917;28;103677;-75
2021/07/23 07:21:56;;;;;;;15.43;13.63;;;;;;;25.29;48.96;100870.00;4918511;28;97748;-71
2021/07/23 07:24:22;;;;;;;15.73;14.02;;;;;;;25.47;48.32;100867.69;4899696;28;117098;-75
2021/07/23 07:26:49;;;;;;;15.20;13.13;;;;;;;25.63;48.02;100865.69;4904450;28;101785;-70
2021/07/23 07:29:16;;;;;;;15.95;13.45;;;;;;;25.80;47.54;100864.50;4884211;28;98323;-70
2021/07/23 07:31:42;;;;;;;14.80;13.30;;;;;;;25.96;47.09;100856.16;4914538;28;97895;-70
2021/07/23 07:34:08;;;;;;;15.95;13.10;;;;;;;26.18;46.37;100869.25;4913357;28;107937;-75
2021/07/23 07:36:34;;;;;;;14.75;12.68;;;;;;;26.58;46.10;100867.28;4898682;28;98159;-70
2021/07/23 07:39:00;;;;;;;18.23;13.65;;;;;;;26.86;44.88;100872.53;4882188;28;98651;-75
2021/07/23 07:41:28;;;;;;;14.88;13.27;;;;;;;27.14;44.84;100869.47;4889482;28;98133;-70
2021/07/23 07:43:54;;;;;;;14.52;12.93;;;;;;;27.16;44.89;100873.50;4888202;28;98156;-70
2021/07/23 07:46:20;;;;;;;16.13;13.13;;;;;;;27.25;44.28;100870.47;4884266;28;98582;-76
2021/07/23 07:48:46;;;;;;;12.70;11.40;;;;;;;27.53;43.41;100867.31;4884856;28;106522;-75
2021/07/23 07:51:12;;;;;;;13.35;12.05;;;;;;;28.35;41.70;100868.44;4903170;28;117178;-70
2021/07/23 07:53:38;;;;;;;13.18;11.80;;;;;;;29.17;40.33;100864.91;4902966;28;98383;-70
2021/07/23 07:56:07;;;;;;;13.98;11.82;;;;;;;29.74;39.79;100860.53;4901710;28;128526;-70
2021/07/23 07:58:33;;;;;;;14.52;11.48;;;;;;;30.93;37.04;100867.31;4902261;28;97799;-70
2021/07/23 08:00:59;;;;;;;12.27;11.07;;;;;;;32.09;35.35;100869.53;4901494;28;98055;-70
2021/07/23 08:03:25;;;;;;;12.20;10.93;;;;;;;32.51;33.59;100874.13;4902289;28;124843;-70
2021/07/23 08:05:56;;;;;;;13.38;10.40;;;;;;;32.77;33.15;100869.16;4902933;28;115034;-70
2021/07/23 08:08:22;;;;;;;12.77;10.90;;;;;;;33.46;32.35;100860.63;4903874;28;97887;-75
2021/07/23 08:10:49;;;;;;;12.63;10.68;;;;;;;34.00;31.39;100859.28;4903177;28;98058;-70
2021/07/23 08:13:15;;;;;;;12.10;10.65;;;;;;;34.31;31.58;100860.03;4906483;28;126653;-71
2021/07/23 08:15:44;;;;;;;12.10;10.60;;;;;;;34.66;30.74;100850.34;4902251;28;112188;-76
2021/07/23 08:18:10;;;;;;;13.25;11.95;;;;;;;34.54;29.62;100848.16;4901516;28;97977;-70
2021/07/23 08:20:39;;;;;;;12.70;11.38;;;;;;;35.70;27.77;100849.38;4916372;28;98113;-70
2021/07/23 08:23:05;;;;;;;13.07;11.38;;;;;;;36.60;26.93;100849.06;4900684;28;98401;-76
2021/07/23 08:25:32;;;;;;;12.77;11.60;;;;;;;37.58;25.79;100845.38;4902003;28;98648;-69
2021/07/23 08:27:58;;;;;;;13.20;11.98;;;;;;;38.47;25.10;100839.91;4897997;28;126741;-69
2021/07/23 08:30:24;;;;;;;12.50;11.30;;;;;;;39.25;23.93;100841.38;4900279;28;115144;-69
2021/07/23 08:32:50;;;;;;;12.68;11.48;;;;;;;39.82;22.90;100832.91;4933375;28;110945;-74
2021/07/23 08:35:16;;;;;;;12.40;11.30;;;;;;;40.37;22.19;100833.19;4901615;28;128031;-74
2021/07/23 08:37:42;;;;;;;12.32;11.23;;;;;;;40.94;21.61;100828.78;4902366;28;97851;-69
2021/07/23 08:40:09;;;;;;;12.48;11.32;;;;;;;41.37;20.78;100826.16;4900961;28;117165;-68
2021/07/23 08:42:35;;;;;;;11.90;10.93;;;;;;;41.74;20.73;100817.63;4932790;28;98558;-69
2021/07/23 08:45:04;;;;;;;12.20;11.13;;;;;;;41.92;20.55;100809.13;4900379;28;98149;-74
2021/07/23 08:47:31;;;;;;;12.93;11.52;;;;;;;42.21;19.88;100813.41;4932943;28;99230;-68
2021/07/23 08:49:57;;;;;;;13.38;12.02;;;;;;;42.46;19.39;100807.34;4898936;28;108529;-74
2021/07/23 08:52:43;;;;;;;12.55;11.25;;;;;;;43.23;19.87;100803.03;4881801;28;98339;-68
2021/07/23 08:55:11;;;;;;;12.68;11.57;;;;;;;43.58;18.37;100801.13;4883401;28;98740;-68
2021/07/23 08:57:37;;;;;;;12.65;11.48;;;;;;;43.91;18.06;100800.19;4881471;28;98464;-68
2021/07/23 09:00:09;;;;;;;12.38;11.32;;;;;;;44.13;18.76;100796.88;4883388;28;97933;-73
2021/07/23 09:02:57;;;;;;;12.95;11.75;;;;;;;44.35;17.95;100790.78;4883025;28;97975;-74
2021/07/23 09:05:28;;;;;;;13.85;12.55;;;;;;;44.42;17.67;100795.28;4882882;28;98185;-69
2021/07/23 09:08:02;;;;;;;12.93;11.88;;;;;;;44.48;16.41;100782.69;4897628;28;98046;-74
2021/07/23 09:10:31;;;;;;;13.50;12.20;;;;;;;44.73;16.88;100783.31;4881315;28;98226;-69
2021/07/23 09:13:00;;;;;;;13.00;11.90;;;;;;;45.13;16.76;100778.88;4883688;28;98889;-76
2021/07/23 09:15:33;;;;;;;12.63;11.50;;;;;;;44.63;17.08;100779.03;4882245;28;98678;-69
2021/07/23 09:17:59;;;;;;;13.15;11.90;;;;;;;43.21;17.83;100769.50;4883120;28;98757;-74
2021/07/23 09:20:29;;;;;;;13.05;11.65;;;;;;;42.29;19.01;100760.88;4882814;28;116719;-70
2021/07/23 09:23:00;;;;;;;13.02;11.70;;;;;;;41.46;18.96;100763.97;4881123;28;98034;-70
2021/07/23 09:25:35;;;;;;;12.18;11.07;;;;;;;40.62;20.03;100759.56;4883161;28;98206;-74
2021/07/23 09:28:01;;;;;;;12.50;11.40;;;;;;;39.92;19.98;100759.13;4886891;28;98336;-70
2021/07/23 09:30:42;;;;;;;12.00;11.00;;;;;;;39.15;20.95;100747.53;4911890;28;98283;-70
2021/07/23 09:33:09;;;;;;;11.90;10.90;;;;;;;38.75;20.34;100755.75;4917610;28;110311;-75
2021/07/23 09:35:35;;;;;;;12.10;11.07;;;;;;;38.12;21.35;100745.34;4903701;28;115700;-74
2021/07/23 09:38:01;;;;;;;11.80;10.68;;;;;;;37.68;21.90;100748.69;4937146;28;97792;-70
2021/07/23 09:40:43;;;;;;;12.93;11.73;;;;;;;37.25;22.78;100743.50;4903484;28;98054;-74
2021/07/23 09:43:09;;;;;;;12.75;11.65;;;;;;;36.95;22.73;100742.72;4904413;28;99401;-71
2021/07/23 09:45:36;;;;;;;12.98;11.35;;;;;;;36.92;22.40;100740.75;4905116;28;98995;-74
2021/07/23 09:48:15;;;;;;;13.40;12.07;;;;;;;36.75;23.31;100734.41;4931852;28;98216;-71
2021/07/23 09:50:47;;;;;;;13.77;12.38;;;;;;;36.44;23.89;100738.78;4901751;28;101283;-74
2021/07/23 09:53:16;;;;;;;12.82;11.63;;;;;;;36.97;22.55;100734.63;4904933;28;99207;-76
2021/07/23 09:55:44;;;;;;;12.30;11.18;;;;;;;37.68;22.12;100743.06;4887314;28;98407;-75
2021/07/23 09:58:10;;;;;;;11.70;10.63;;;;;;;37.72;22.08;100732.50;4885147;28;127207;-74
2021/07/23 10:00:41;;;;;;;12.70;11.20;;;;;;;38.22;21.85;100730.94;4882431;28;117621;-70
2021/07/23 10:03:13;;;;;;;11.93;10.70;;;;;;;39.96;20.02;100727.97;4885465;28;98910;-69
2021/07/23 10:05:50;;;;;;;11.75;10.75;;;;;;;39.88;20.46;100730.28;4915631;28;99103;-69
2021/07/23 10:08:22;;;;;;;13.73;11.73;;;;;;;40.72;19.98;100727.25;4914775;28;106667;-69
2021/07/23 10:10:51;;;;;;;11.63;10.52;;;;;;;41.73;18.44;100728.38;4900922;28;100153;-69
2021/07/23 10:13:23;;;;;;;12.48;11.27;;;;;;;41.36;19.39;100729.25;4934737;28;98310;-69
2021/07/23 10:15:49;;;;;;;11.65;10.55;;;;;;;40.82;18.91;100724.44;4897134;28;99292;-76
2021/07/23 10:18:16;;;;;;;12.02;10.73;;;;;;;40.75;19.23;100719.09;4886030;28;97801;-76
2021/07/23 10:20:47;;;;;;;11.38;10.38;;;;;;;39.43;21.09;100722.38;4915397;28;98179;-69
2021/07/23 10:23:22;;;;;;;11.00;10.03;;;;;;;39.43;20.71;100716.72;4883729;28;98639;-69
2021/07/23 10:25:49;;;;;;;11.93;10.13;;;;;;;39.34;20.39;100714.66;4883153;28;98684;-69
2021/07/23 10:28:52;;;;;;;11.27;10.18;;;;;;;38.49;21.81;100707.19;4899737;28;97999;-76
2021/07/23 10:31:21;;;;;;;63.13;14.48;;;;;;;37.17;22.28;100697.19;4885708;28;98111;-70
2021/07/23 10:33:54;;;;;;;10.70;9.60;;;;;;;36.25;23.23;100704.78;4884263;28;100220;-77
2021/07/23 10:36:26;;;;;;;23.77;12.07;;;;;;;35.31;24.50;100696.81;4885835;28;98758;-77
2021/07/23 10:39:19;;;;;;;10.93;9.93;;;;;;;34.55;25.06;100698.66;4904140;28;97815;-77
2021/07/23 10:41:50;;;;;;;11.35;10.25;;;;;;;34.18;25.01;100697.63;4904125;28;97882;-69
2021/07/23 10:44:29;;;;;;;10.75;9.65;;;;;;;33.68;26.15;100695.53;4896268;28;98865;-75
2021/07/23 10:46:56;;;;;;;10.32;9.30;;;;;;;34.07;25.94;100689.41;4885216;28;98343;-75
2021/07/23 10:49:30;;;;;;;9.38;8.57;;;;;;;34.20;25.35;100693.22;4915564;28;98149;-69
2021/07/23 10:52:02;;;;;;;9.75;8.85;;;;;;;35.88;23.76;100700.41;4885637;28;97784;-75
2021/07/23 10:54:33;;;;;;;10.30;8.50;;;;;;;35.02;24.05;100699.41;4892327;28;98171;-69
2021/07/23 10:57:02;;;;;;;9.67;8.37;;;;;;;34.23;24.93;100693.56;4933124;28;114117;-76
2021/07/23 10:59:43;;;;;;;8.63;7.82;;;;;;;35.65;23.19;100690.16;4903855;28;98654;-75
2021/07/23 11:02:15;;;;;;;7.20;6.60;;;;;;;34.69;23.48;100692.81;4901563;28;98118;-76
2021/07/23 11:04:47;;;;;;;7.63;6.90;;;;;;;35.17;22.86;100695.13;4900434;28;98871;-70
2021/07/23 11:07:15;;;;;;;8.30;7.50;;;;;;;35.69;23.18;100696.47;4898852;28;98592;-70
2021/07/23 11:09:44;;;;;;;8.50;7.78;;;;;;;35.79;23.20;100689.81;4900265;28;99692;-75